Terminal Aerodrome Forecast
Issued by NWS Louisville, KY

Home | Current Version | Previous Version | Text Only | Print | Product List | Glossary On
Versions: 1 2 3 4 5 6 7 8 9 10 11 12 13 14 15 16 17 18 19
000
FTUS43 KLMK 201128
TAFSDF
TAF
KSDF 201128Z 2012/2118 VRB03KT 5SM BR FEW002
     FM201300 VRB03KT P6SM FEW040
     FM210900 00000KT 3SM BR FEW200
     FM211400 VRB03KT P6SM SCT110=

USA.gov is the U.S. government's official web portal to all federal, state and local government web resources and services.